Terminal Aerodrome Forecast
Issued by NWS Wilmington, OH

Current Version | Previous Version | Graphics & Text | Print | Product List | Glossary On
Versions: 1 2 3 4 5 6 7 8 9 10 11 12 13 14 15 16
000
FTUS41 KILN 251700 RRA
TAFDAY
TAF
KDAY 251742Z 2518/2618 14005KT P6SM VCSH BKN035
     FM260000 14004KT P6SM SKC
     FM260900 17004KT 4SM BR SKC
     FM261300 17004KT P6SM SKC
     FM261500 20005KT P6SM SCT035 SCT250=

USA.gov is the U.S. government's official web portal to all federal, state and local government web resources and services.